createdAt,value
2022-11-11T00:02:42.275Z,7.48
2022-11-11T00:05:29.862Z,7.61
2022-11-11T00:08:17.464Z,7.83
2022-11-11T00:11:05.042Z,8.23
2022-11-11T00:13:52.633Z,8.80
2022-11-11T00:16:40.221Z,8.32
2022-11-11T00:19:27.795Z,8.22
2022-11-11T00:22:17.344Z,7.90
2022-11-11T00:25:04.924Z,7.41
2022-11-11T00:27:52.498Z,7.28
2022-11-11T00:30:40.062Z,7.36
2022-11-11T00:33:27.642Z,7.27
2022-11-11T00:36:15.538Z,7.29
2022-11-11T00:39:03.096Z,7.21
2022-11-11T00:41:50.680Z,7.64
2022-11-11T00:44:38.279Z,7.70
2022-11-11T00:47:25.963Z,7.29
2022-11-11T00:50:13.562Z,8.02
2022-11-11T00:53:01.214Z,8.30
2022-11-11T00:55:48.846Z,8.42
2022-11-11T00:58:36.472Z,8.44
2022-11-11T01:01:24.158Z,8.41
2022-11-11T01:04:11.788Z,8.80
2022-11-11T01:06:59.533Z,8.67
2022-11-11T01:09:47.265Z,8.91
2022-11-11T01:12:34.979Z,8.66
2022-11-11T01:15:22.579Z,8.47
2022-11-11T01:18:10.167Z,8.27
2022-11-11T01:20:57.916Z,7.67
2022-11-11T01:23:45.751Z,7.66
2022-11-11T01:26:33.328Z,7.89
2022-11-11T01:29:20.995Z,7.99
2022-11-11T01:32:08.657Z,7.28
2022-11-11T01:34:56.265Z,7.29
2022-11-11T01:37:43.858Z,7.36
2022-11-11T01:40:31.485Z,7.24
2022-11-11T01:43:19.181Z,7.05
2022-11-11T01:46:06.790Z,7.35
2022-11-11T01:48:54.373Z,7.31
2022-11-11T01:51:41.983Z,7.59
2022-11-11T01:54:29.694Z,7.77
2022-11-11T01:57:17.387Z,7.99
2022-11-11T02:00:05.151Z,8.18
2022-11-11T02:02:53.029Z,8.28
2022-11-11T02:05:40.703Z,8.21
2022-11-11T02:08:28.294Z,8.64
2022-11-11T02:11:15.880Z,8.88
2022-11-11T02:14:03.561Z,8.99
2022-11-11T02:16:51.264Z,8.65
2022-11-11T02:19:38.998Z,8.80
2022-11-11T02:22:26.676Z,8.83
2022-11-11T02:25:16.325Z,8.80
2022-11-11T02:28:04.089Z,8.73
2022-11-11T02:30:51.798Z,8.99
2022-11-11T02:33:39.578Z,9.06
2022-11-11T02:36:27.161Z,8.98
2022-11-11T02:39:14.885Z,8.92
2022-11-11T02:42:02.624Z,9.00
2022-11-11T02:44:50.383Z,9.63
2022-11-11T02:47:38.046Z,9.81
2022-11-11T02:50:25.785Z,9.80
2022-11-11T02:53:13.389Z,10.12
2022-11-11T02:56:01.080Z,9.57
2022-11-11T02:58:49.102Z,10.21
2022-11-11T03:01:37.064Z,9.97
2022-11-11T03:04:24.796Z,9.91
2022-11-11T03:07:12.443Z,10.23
2022-11-11T03:10:00.322Z,10.57
2022-11-11T03:12:48.142Z,10.12
2022-11-11T03:15:35.748Z,9.71
2022-11-11T03:18:23.418Z,9.74
2022-11-11T03:22:09.999Z,10.27
2022-11-11T03:24:18.552Z,10.01
2022-11-11T03:27:06.154Z,9.86
2022-11-11T03:29:53.728Z,10.17
2022-11-11T03:32:41.283Z,10.83
2022-11-11T03:35:28.917Z,11.16
2022-11-11T03:38:16.488Z,11.69
2022-11-11T03:41:04.078Z,11.99
2022-11-11T03:43:51.657Z,12.34
2022-11-11T03:46:39.251Z,12.38
2022-11-11T03:49:26.797Z,12.52
2022-11-11T03:52:14.397Z,12.71
2022-11-11T03:55:01.961Z,12.90
2022-11-11T03:57:49.563Z,13.06
2022-11-11T04:00:37.121Z,13.19
2022-11-11T04:03:25.124Z,13.29
2022-11-11T04:06:12.980Z,13.56
2022-11-11T04:09:00.592Z,13.48
2022-11-11T04:11:48.182Z,13.60
2022-11-11T04:14:55.708Z,13.07
2022-11-11T04:17:43.572Z,12.82
2022-11-11T04:20:31.186Z,13.15
2022-11-11T04:23:18.791Z,13.23
2022-11-11T04:26:06.335Z,13.39
2022-11-11T04:28:53.894Z,12.65
2022-11-11T04:31:41.468Z,11.90
2022-11-11T04:34:29.026Z,11.66
2022-11-11T04:37:16.690Z,11.70
2022-11-11T04:40:06.248Z,12.37
2022-11-11T04:42:53.847Z,12.39
2022-11-11T04:45:41.434Z,12.53
2022-11-11T04:48:29.025Z,12.61
2022-11-11T04:51:16.577Z,12.65
2022-11-11T04:54:04.149Z,12.80
2022-11-11T04:56:51.724Z,12.73
2022-11-11T04:59:39.314Z,12.73
2022-11-11T05:02:26.886Z,12.76
2022-11-11T05:05:14.485Z,12.87
2022-11-11T05:08:02.041Z,12.86
2022-11-11T05:10:49.624Z,12.83
2022-11-11T05:13:37.199Z,12.76
2022-11-11T05:16:24.755Z,12.76
2022-11-11T05:19:12.341Z,12.78
2022-11-11T05:21:59.913Z,12.77
2022-11-11T05:24:47.502Z,12.56
2022-11-11T05:27:35.091Z,11.99
2022-11-11T05:30:22.651Z,12.11
2022-11-11T05:33:10.316Z,12.02
2022-11-11T05:35:59.872Z,12.17
2022-11-11T05:38:47.455Z,12.11
2022-11-11T05:41:35.070Z,12.04
2022-11-11T05:44:22.658Z,11.79
2022-11-11T05:47:10.267Z,11.93
2022-11-11T05:49:57.838Z,12.16
2022-11-11T05:52:45.422Z,12.21
2022-11-11T05:55:32.985Z,12.21
2022-11-11T05:58:20.562Z,12.22
2022-11-11T06:01:08.126Z,12.65
2022-11-11T06:03:55.728Z,12.52
2022-11-11T06:06:43.353Z,12.75
2022-11-11T06:09:30.942Z,12.82
2022-11-11T06:12:18.515Z,12.91
2022-11-11T06:15:06.091Z,12.83
2022-11-11T06:17:53.686Z,12.72
2022-11-11T06:20:41.361Z,12.64
2022-11-11T06:23:28.946Z,12.62
2022-11-11T06:26:16.538Z,12.63
2022-11-11T06:29:04.144Z,12.78
2022-11-11T06:31:51.725Z,12.89
2022-11-11T06:34:39.330Z,12.73
2022-11-11T06:37:26.915Z,12.14
2022-11-11T06:40:18.914Z,12.57
2022-11-11T06:43:09.249Z,12.65
2022-11-11T06:45:56.838Z,12.77
2022-11-11T06:48:44.419Z,12.48
2022-11-11T06:51:32.043Z,12.85
2022-11-11T06:54:19.620Z,12.75
2022-11-11T06:57:08.657Z,12.73
2022-11-11T06:59:56.435Z,12.97
2022-11-11T07:02:44.022Z,12.87
2022-11-11T07:05:31.596Z,12.39
2022-11-11T07:08:19.288Z,12.56
2022-11-11T07:11:15.608Z,12.46
2022-11-11T07:14:06.212Z,12.42
2022-11-11T07:16:53.792Z,12.65
2022-11-11T07:19:41.572Z,12.62
2022-11-11T07:22:31.129Z,12.81
2022-11-11T07:25:21.841Z,12.89
2022-11-11T07:28:09.421Z,12.53
2022-11-11T07:30:57.026Z,12.42
2022-11-11T07:33:44.588Z,12.50
2022-11-11T07:36:32.175Z,12.57
2022-11-11T07:39:19.754Z,12.79
2022-11-11T07:42:08.927Z,12.76
2022-11-11T07:44:58.491Z,12.69
2022-11-11T07:47:46.091Z,12.63
2022-11-11T07:50:33.673Z,12.41
2022-11-11T07:53:21.533Z,12.28
2022-11-11T07:56:09.338Z,12.63
2022-11-11T07:58:56.925Z,11.96
2022-11-11T08:01:44.517Z,11.60
2022-11-11T08:04:32.114Z,11.74
2022-11-11T08:07:22.937Z,11.87
2022-11-11T08:10:11.162Z,11.42
2022-11-11T08:12:58.740Z,11.46
2022-11-11T08:15:46.347Z,11.83
2022-11-11T08:18:33.910Z,11.80
2022-11-11T08:21:21.530Z,12.06
2022-11-11T08:25:01.490Z,12.32
2022-11-11T08:27:16.633Z,12.33
2022-11-11T08:30:04.221Z,12.46
2022-11-11T08:33:11.787Z,12.72
2022-11-11T08:35:59.343Z,12.66
2022-11-11T08:38:46.930Z,12.55
2022-11-11T08:41:34.514Z,12.55
2022-11-11T08:44:22.088Z,12.76
2022-11-11T08:47:09.685Z,12.82
2022-11-11T08:49:57.261Z,13.19
2022-11-11T08:52:44.871Z,13.30
2022-11-11T08:55:32.456Z,13.44
2022-11-11T08:58:21.014Z,13.24
2022-11-11T09:01:08.644Z,13.43
2022-11-11T09:03:56.238Z,13.55
2022-11-11T09:06:43.838Z,13.67
2022-11-11T09:09:31.465Z,13.43
2022-11-11T09:12:19.072Z,13.59
2022-11-11T09:15:06.660Z,12.66
2022-11-11T09:17:54.245Z,12.66
2022-11-11T09:20:41.823Z,12.83
2022-11-11T09:23:29.421Z,12.10
2022-11-11T09:26:16.997Z,12.16
2022-11-11T09:29:04.593Z,11.83
2022-11-11T09:31:52.180Z,11.92
2022-11-11T09:34:39.758Z,12.26
2022-11-11T09:37:27.413Z,11.76
2022-11-11T09:40:14.991Z,11.60
2022-11-11T09:43:02.572Z,11.62
2022-11-11T09:45:50.158Z,11.66
2022-11-11T09:48:37.753Z,11.13
2022-11-11T09:51:25.357Z,10.45
2022-11-11T09:54:12.947Z,10.62
2022-11-11T09:57:00.513Z,10.23
2022-11-11T09:59:48.085Z,10.81
2022-11-11T10:02:35.655Z,10.83
2022-11-11T10:05:23.261Z,11.62
2022-11-11T10:08:10.841Z,11.89
2022-11-11T10:10:58.438Z,11.63
2022-11-11T10:13:46.031Z,12.01
2022-11-11T10:16:33.623Z,11.41
2022-11-11T10:19:21.189Z,11.67
2022-11-11T10:22:13.401Z,12.13
2022-11-11T10:25:01.360Z,12.01
2022-11-11T10:27:49.025Z,12.24
2022-11-11T10:30:36.611Z,12.44
2022-11-11T10:33:24.204Z,13.07
2022-11-11T10:36:11.805Z,12.96
2022-11-11T10:38:59.392Z,12.64
2022-11-11T10:41:49.029Z,13.13
2022-11-11T10:44:36.591Z,13.52
2022-11-11T10:47:24.193Z,13.15
2022-11-11T10:50:11.803Z,12.77
2022-11-11T10:52:59.375Z,12.51
2022-11-11T10:55:46.966Z,12.26
2022-11-11T10:58:34.568Z,12.50
2022-11-11T11:01:22.259Z,12.75
2022-11-11T11:04:09.881Z,12.29
2022-11-11T11:06:57.478Z,12.00
2022-11-11T11:09:45.094Z,12.64
2022-11-11T11:12:32.697Z,12.03
2022-11-11T11:15:20.277Z,12.78
2022-11-11T11:18:07.891Z,11.85
2022-11-11T11:20:55.477Z,12.36
2022-11-11T11:23:43.082Z,12.84
2022-11-11T11:26:30.631Z,12.63
2022-11-11T11:29:18.208Z,11.96
2022-11-11T11:32:05.810Z,12.04
2022-11-11T11:34:53.366Z,12.46
2022-11-11T11:37:40.937Z,12.77
2022-11-11T11:40:28.516Z,12.43
2022-11-11T11:43:16.097Z,12.81
2022-11-11T11:46:08.081Z,12.61
2022-11-11T11:48:56.032Z,12.89
2022-11-11T11:51:43.624Z,12.93
2022-11-11T11:54:31.200Z,12.63
2022-11-11T11:57:18.797Z,13.08
2022-11-11T12:00:06.374Z,12.77
2022-11-11T12:02:53.960Z,12.89
2022-11-11T12:05:41.581Z,13.22
2022-11-11T12:08:29.159Z,12.94
2022-11-11T12:11:16.739Z,12.99
2022-11-11T12:14:04.434Z,13.45
2022-11-11T12:16:54.005Z,13.67
2022-11-11T12:19:41.605Z,14.41
2022-11-11T12:22:29.204Z,13.61
2022-11-11T12:25:16.775Z,14.12
2022-11-11T12:28:04.350Z,14.62
2022-11-11T12:30:52.017Z,14.41
2022-11-11T12:33:39.576Z,14.77
2022-11-11T12:36:27.196Z,14.91
2022-11-11T12:39:15.459Z,14.59
2022-11-11T12:42:03.055Z,14.22
2022-11-11T12:44:50.620Z,13.95
2022-11-11T12:47:38.301Z,14.31
2022-11-11T12:50:25.876Z,14.25
2022-11-11T12:53:13.460Z,14.34
2022-11-11T12:56:01.035Z,14.78
2022-11-11T12:58:48.580Z,14.82
2022-11-11T13:01:36.197Z,14.97
2022-11-11T13:04:23.780Z,15.02
2022-11-11T13:07:11.463Z,14.98
2022-11-11T13:09:59.078Z,14.62
2022-11-11T13:12:46.670Z,14.69
2022-11-11T13:15:34.245Z,14.32
2022-11-11T13:18:21.827Z,14.54
2022-11-11T13:21:09.397Z,14.85
2022-11-11T13:23:56.993Z,14.79
2022-11-11T13:26:44.576Z,15.05
2022-11-11T13:29:32.210Z,14.94
2022-11-11T13:32:19.815Z,15.18
2022-11-11T13:35:07.405Z,15.13
2022-11-11T13:37:55.009Z,15.23
2022-11-11T13:40:42.577Z,14.77
2022-11-11T13:43:30.188Z,14.83
2022-11-11T13:46:17.761Z,15.17
2022-11-11T13:49:05.364Z,14.59
2022-11-11T13:51:52.923Z,13.99
2022-11-11T13:54:40.617Z,13.90
2022-11-11T13:57:30.200Z,13.94
2022-11-11T14:00:17.808Z,13.93
2022-11-11T14:03:05.366Z,14.58
2022-11-11T14:05:52.973Z,13.95
2022-11-11T14:08:40.545Z,13.78
2022-11-11T14:11:28.127Z,14.27
2022-11-11T14:14:15.706Z,13.66
2022-11-11T14:17:03.286Z,13.88
2022-11-11T14:19:50.867Z,13.79
2022-11-11T14:22:38.434Z,13.31
2022-11-11T14:25:25.996Z,13.62
2022-11-11T14:28:14.671Z,13.66
2022-11-11T14:31:02.270Z,13.62
2022-11-11T14:33:49.859Z,13.36
2022-11-11T14:36:37.479Z,13.56
2022-11-11T14:39:25.070Z,13.52
2022-11-11T14:42:12.646Z,13.43
2022-11-11T14:45:00.248Z,13.94
2022-11-11T14:47:47.807Z,14.40
2022-11-11T14:50:35.393Z,14.17
2022-11-11T14:53:23.231Z,13.75
2022-11-11T14:56:11.012Z,13.61
2022-11-11T14:58:58.575Z,13.82
2022-11-11T15:01:46.237Z,13.80
2022-11-11T15:04:33.859Z,13.51
2022-11-11T15:07:21.490Z,12.58
2022-11-11T15:10:09.133Z,12.01
2022-11-11T15:12:56.725Z,11.91
2022-11-11T15:15:44.320Z,12.35
2022-11-11T15:18:31.920Z,12.62
2022-11-11T15:21:19.502Z,12.77
2022-11-11T15:24:07.096Z,13.45
2022-11-11T15:26:54.702Z,13.16
2022-11-11T15:29:42.301Z,12.86
2022-11-11T15:32:30.023Z,13.06
2022-11-11T15:35:17.650Z,12.27
2022-11-11T15:38:05.426Z,12.91
2022-11-11T15:40:53.006Z,12.57
2022-11-11T15:43:40.590Z,12.25
2022-11-11T15:46:28.186Z,11.58
2022-11-11T15:49:15.769Z,11.23
2022-11-11T15:52:03.361Z,11.54
2022-11-11T15:54:50.953Z,11.68
2022-11-11T15:57:38.537Z,11.45
2022-11-11T16:00:26.098Z,11.53
2022-11-11T16:03:13.692Z,11.41
2022-11-11T16:06:06.949Z,11.08
2022-11-11T16:08:34.206Z,11.16
2022-11-11T16:11:01.549Z,11.14
2022-11-11T16:13:28.881Z,11.54
2022-11-11T16:15:56.249Z,12.19
2022-11-11T16:18:25.834Z,12.83
2022-11-11T16:20:53.241Z,13.15
2022-11-11T16:23:20.518Z,12.89
2022-11-11T16:25:52.315Z,13.05
2022-11-11T16:28:20.869Z,12.25
2022-11-11T16:30:48.165Z,11.67
2022-11-11T16:33:15.425Z,11.42
2022-11-11T16:35:42.702Z,11.51
2022-11-11T16:38:09.983Z,11.07
2022-11-11T16:40:37.254Z,10.80
2022-11-11T16:43:04.521Z,11.50
2022-11-11T16:45:31.793Z,10.87
2022-11-11T16:47:59.038Z,11.14
2022-11-11T16:50:26.313Z,10.83
2022-11-11T16:52:53.561Z,10.55
2022-11-11T16:55:20.815Z,10.45
2022-11-11T16:57:48.080Z,9.91
2022-11-11T17:00:15.351Z,9.61
2022-11-11T17:02:42.638Z,9.24
2022-11-11T17:05:09.883Z,9.12
2022-11-11T17:07:37.152Z,9.36
2022-11-11T17:10:04.403Z,9.14
2022-11-11T17:12:31.669Z,9.20
2022-11-11T17:14:58.938Z,9.28
2022-11-11T17:17:26.248Z,9.59
2022-11-11T17:19:53.517Z,9.81
2022-11-11T17:22:20.788Z,9.91
2022-11-11T17:24:48.036Z,9.97
2022-11-11T17:27:15.280Z,9.78
2022-11-11T17:29:42.552Z,9.70
2022-11-11T17:32:09.937Z,9.55
2022-11-11T17:34:37.204Z,9.52
2022-11-11T17:37:04.483Z,9.32
2022-11-11T17:39:31.733Z,9.23
2022-11-11T17:41:58.994Z,9.31
2022-11-11T17:44:45.148Z,9.65
2022-11-11T17:47:31.004Z,9.87
2022-11-11T17:50:16.801Z,9.87
2022-11-11T17:53:02.695Z,10.01
2022-11-11T17:55:48.537Z,10.80
2022-11-11T17:58:39.822Z,11.07
2022-11-11T18:01:26.928Z,11.23
2022-11-11T18:04:12.913Z,11.16
2022-11-11T18:06:58.924Z,10.81
2022-11-11T18:09:44.842Z,10.48
2022-11-11T18:12:30.779Z,10.47
2022-11-11T18:15:16.656Z,10.32
2022-11-11T18:18:02.435Z,9.65
2022-11-11T18:20:48.237Z,9.31
2022-11-11T18:23:34.274Z,9.23
2022-11-11T18:26:20.209Z,9.54
2022-11-11T18:29:05.965Z,9.54
2022-11-11T18:31:55.951Z,9.37
2022-11-11T18:34:42.347Z,9.00
2022-11-11T18:37:28.174Z,8.75
2022-11-11T18:40:15.762Z,8.59
2022-11-11T18:43:03.418Z,8.64
2022-11-11T18:45:51.011Z,8.64
2022-11-11T18:48:38.583Z,8.58
2022-11-11T18:51:26.166Z,8.77
2022-11-11T18:54:13.760Z,8.93
2022-11-11T18:57:01.368Z,9.02
2022-11-11T18:59:48.934Z,8.94
2022-11-11T19:02:36.536Z,8.78
2022-11-11T19:05:24.096Z,8.74
2022-11-11T19:08:11.686Z,8.61
2022-11-11T19:10:59.258Z,8.44
2022-11-11T19:13:46.849Z,8.31
2022-11-11T19:16:34.434Z,8.11
2022-11-11T19:19:22.011Z,8.25
2022-11-11T19:22:09.590Z,8.55
2022-11-11T19:24:57.189Z,8.81
2022-11-11T19:27:44.746Z,8.67
2022-11-11T19:30:32.332Z,8.67
2022-11-11T19:33:19.900Z,8.90
2022-11-11T19:36:07.501Z,8.81
2022-11-11T19:38:55.067Z,8.88
2022-11-11T19:41:42.654Z,8.92
2022-11-11T19:44:30.250Z,8.95
2022-11-11T19:47:17.837Z,9.30
2022-11-11T19:50:05.516Z,9.86
2022-11-11T19:52:53.078Z,10.26
2022-11-11T19:55:40.686Z,9.61
2022-11-11T19:58:28.283Z,9.47
2022-11-11T20:01:15.958Z,9.47
2022-11-11T20:04:03.601Z,9.89
2022-11-11T20:06:51.291Z,8.97
2022-11-11T20:09:38.883Z,8.61
2022-11-11T20:12:26.504Z,8.61
2022-11-11T20:15:14.065Z,8.82
2022-11-11T20:18:01.644Z,9.13
2022-11-11T20:20:49.227Z,9.22
2022-11-11T20:23:36.821Z,9.15
2022-11-11T20:26:24.410Z,8.91
2022-11-11T20:29:11.986Z,8.92
2022-11-11T20:31:59.537Z,8.91
2022-11-11T20:34:47.144Z,8.64
2022-11-11T20:37:34.740Z,8.84
2022-11-11T20:40:22.295Z,9.10
2022-11-11T20:43:09.875Z,9.49
2022-11-11T20:45:57.454Z,9.51
2022-11-11T20:48:45.001Z,9.15
2022-11-11T20:51:32.597Z,9.26
2022-11-11T20:54:20.189Z,8.65
2022-11-11T20:57:07.747Z,8.66
2022-11-11T20:59:55.419Z,8.98
2022-11-11T21:02:42.974Z,9.59
2022-11-11T21:05:30.534Z,9.32
2022-11-11T21:08:18.139Z,8.90
2022-11-11T21:11:05.689Z,8.07
2022-11-11T21:13:53.280Z,8.29
2022-11-11T21:16:40.908Z,8.97
2022-11-11T21:19:28.506Z,8.44
2022-11-11T21:22:16.055Z,9.07
2022-11-11T21:25:03.631Z,9.82
2022-11-11T21:27:51.198Z,10.19
2022-11-11T21:30:38.786Z,8.54
2022-11-11T21:33:26.613Z,8.71
2022-11-11T21:36:14.481Z,9.19
2022-11-11T21:39:02.172Z,8.95
2022-11-11T21:41:49.795Z,8.83
2022-11-11T21:44:37.463Z,8.86
2022-11-11T21:47:27.006Z,8.08
2022-11-11T21:50:14.579Z,7.59
2022-11-11T21:53:02.223Z,8.03
2022-11-11T21:55:49.850Z,8.68
2022-11-11T21:58:37.452Z,9.18
2022-11-11T22:01:29.751Z,8.93
2022-11-11T22:04:17.840Z,8.39
2022-11-11T22:07:05.460Z,8.81
2022-11-11T22:09:53.122Z,8.41
2022-11-11T22:12:40.724Z,7.79
2022-11-11T22:15:28.314Z,8.00
2022-11-11T22:18:15.875Z,7.83
2022-11-11T22:21:03.479Z,7.33
2022-11-11T22:23:51.033Z,7.55
2022-11-11T22:26:38.607Z,7.16
2022-11-11T22:29:26.150Z,7.34
2022-11-11T22:32:13.717Z,7.45
2022-11-11T22:35:01.297Z,7.46
2022-11-11T22:37:49.120Z,7.83
2022-11-11T22:40:36.829Z,8.29
2022-11-11T22:43:45.621Z,7.85
2022-11-11T22:46:31.974Z,7.78
2022-11-11T22:49:21.578Z,7.71
2022-11-11T22:52:09.142Z,7.44
2022-11-11T22:54:56.729Z,7.69
2022-11-11T22:57:44.333Z,8.59
2022-11-11T23:00:31.874Z,9.16
2022-11-11T23:03:19.444Z,9.43
2022-11-11T23:06:07.082Z,9.09
2022-11-11T23:08:54.678Z,7.85
2022-11-11T23:11:42.227Z,6.62
2022-11-11T23:14:29.829Z,6.77
2022-11-11T23:17:17.405Z,7.34
2022-11-11T23:20:04.986Z,8.31
2022-11-11T23:22:52.556Z,9.37
2022-11-11T23:25:40.146Z,10.03
2022-11-11T23:28:28.085Z,9.68
2022-11-11T23:31:15.913Z,8.04
2022-11-11T23:34:03.493Z,7.27
2022-11-11T23:36:51.110Z,6.93
2022-11-11T23:39:38.692Z,6.70
2022-11-11T23:42:26.330Z,6.51
2022-11-11T23:45:13.897Z,6.90
2022-11-11T23:48:01.458Z,7.02
2022-11-11T23:50:49.060Z,7.95
2022-11-11T23:53:36.687Z,7.92
2022-11-11T23:56:24.266Z,7.98
2022-11-11T23:59:11.841Z,8.85
